Time;durP1;ratioP1;P1;durP2;ratioP2;P2;SDS_P1;SDS_P2;PMS_P1;PMS_P2;Temp;Humidity;BMP_temperature;BMP_pressure;BME280_temperature;BME280_humidity;BME280_pressure;Samples;Min_cycle;Max_cycle;Signal;HPM_P1;HPM_P2
2023/09/28 00:00:35;;;;;;;10.15;7.05;;;20.30;73.30;;;;;;4994035;28;20477;-57
2023/09/28 00:02:47;;;;;;;10.55;7.60;;;20.20;73.20;;;;;;4993925;28;20078;-57
2023/09/28 00:05:14;;;;;;;11.30;6.95;;;20.20;73.40;;;;;;4994216;28;20478;-56
2023/09/28 00:07:41;;;;;;;7.88;6.78;;;20.20;73.90;;;;;;4994092;28;20027;-57
2023/09/28 00:10:11;;;;;;;10.73;7.43;;;20.20;74.10;;;;;;4993865;28;20049;-57
2023/09/28 00:12:38;;;;;;;10.82;6.50;;;20.20;74.40;;;;;;4993814;28;20414;-56
2023/09/28 00:15:04;;;;;;;9.23;6.80;;;20.20;74.60;;;;;;4993699;28;20490;-58
2023/09/28 00:17:29;;;;;;;9.60;7.32;;;20.20;74.40;;;;;;4993679;28;20026;-58
2023/09/28 00:19:55;;;;;;;8.95;7.30;;;20.20;74.20;;;;;;4993593;28;20038;-57
2023/09/28 00:22:20;;;;;;;10.60;8.10;;;20.20;74.10;;;;;;4976160;28;20065;-57
2023/09/28 00:24:46;;;;;;;9.82;7.63;;;20.20;74.10;;;;;;4993745;28;20054;-57
2023/09/28 00:27:12;;;;;;;8.88;7.57;;;20.20;74.10;;;;;;4993446;28;20030;-56
2023/09/28 00:29:39;;;;;;;10.07;7.47;;;20.20;73.90;;;;;;4993494;28;20022;-57
2023/09/28 00:32:04;;;;;;;16.45;7.60;;;20.10;73.90;;;;;;4993360;28;20036;-57
2023/09/28 00:34:30;;;;;;;8.73;7.32;;;20.10;73.50;;;;;;4993389;28;20038;-57
2023/09/28 00:36:55;;;;;;;9.32;7.72;;;20.10;73.60;;;;;;4993403;28;20026;-56
2023/09/28 00:39:22;;;;;;;10.02;7.53;;;20.10;73.80;;;;;;4993376;28;20396;-58
2023/09/28 00:41:48;;;;;;;9.95;7.10;;;20.10;73.80;;;;;;4993481;28;20554;-57
2023/09/28 00:44:15;;;;;;;9.80;7.80;;;20.10;73.80;;;;;;4993521;28;20113;-58
2023/09/28 00:46:41;;;;;;;10.80;7.72;;;20.10;73.70;;;;;;4993757;28;20076;-58
2023/09/28 00:49:09;;;;;;;11.85;8.00;;;20.10;74.20;;;;;;4993094;28;20105;-57
2023/09/28 00:51:35;;;;;;;12.75;7.38;;;20.10;73.40;;;;;;4993066;28;20510;-57
2023/09/28 00:54:03;;;;;;;9.43;7.68;;;20.10;73.20;;;;;;4993104;28;20034;-58
2023/09/28 00:56:31;;;;;;;9.18;7.30;;;20.10;73.10;;;;;;4993362;28;20030;-58
2023/09/28 00:58:59;;;;;;;10.68;7.80;;;20.10;72.90;;;;;;4992752;28;20129;-57
2023/09/28 01:01:26;;;;;;;11.63;7.40;;;20.10;72.70;;;;;;4993009;28;20026;-57
2023/09/28 01:03:55;;;;;;;10.30;8.20;;;20.10;72.70;;;;;;4993069;28;20494;-58
2023/09/28 01:06:21;;;;;;;9.13;7.43;;;20.10;72.40;;;;;;4993104;28;20027;-57
2023/09/28 01:08:47;;;;;;;10.23;7.55;;;20.10;72.40;;;;;;4993233;28;20038;-58
2023/09/28 01:11:12;;;;;;;9.73;7.43;;;20.10;72.40;;;;;;4992851;28;20030;-57
2023/09/28 01:13:39;;;;;;;11.18;8.35;;;20.00;72.00;;;;;;4992658;28;20126;-57
2023/09/28 01:16:05;;;;;;;11.63;7.82;;;20.00;72.30;;;;;;4993116;28;20026;-58
2023/09/28 01:18:31;;;;;;;11.07;7.70;;;20.00;72.50;;;;;;4992762;28;20033;-57
2023/09/28 01:20:58;;;;;;;11.45;8.23;;;20.00;72.70;;;;;;4992490;28;20034;-56
2023/09/28 01:23:23;;;;;;;10.05;7.70;;;20.00;72.50;;;;;;4992846;28;20038;-58
2023/09/28 01:25:49;;;;;;;11.93;7.65;;;20.00;72.60;;;;;;4992417;28;20041;-58
2023/09/28 01:28:18;;;;;;;10.93;7.60;;;19.90;72.20;;;;;;4992710;28;20031;-58
2023/09/28 01:30:47;;;;;;;11.15;8.02;;;19.90;72.40;;;;;;4992587;28;20022;-58
2023/09/28 01:33:13;;;;;;;10.32;7.90;;;19.90;72.60;;;;;;4992522;28;20026;-57
2023/09/28 01:35:38;;;;;;;12.38;7.82;;;19.90;72.90;;;;;;4992688;28;20026;-57
2023/09/28 01:38:10;;;;;;;10.40;7.85;;;19.90;72.90;;;;;;4992357;28;20034;-58
2023/09/28 01:40:39;;;;;;;11.02;8.13;;;19.90;73.10;;;;;;4992247;28;20062;-57
2023/09/28 01:43:06;;;;;;;11.98;8.15;;;19.80;72.90;;;;;;4991745;28;20049;-58
2023/09/28 01:45:31;;;;;;;10.65;8.07;;;19.80;72.90;;;;;;4991694;28;20077;-56
2023/09/28 01:47:57;;;;;;;13.82;8.02;;;19.70;72.80;;;;;;4992088;28;20034;-58
2023/09/28 01:50:23;;;;;;;10.85;8.15;;;19.70;72.80;;;;;;4992007;28;20030;-58
2023/09/28 01:52:49;;;;;;;9.02;8.13;;;19.70;73.00;;;;;;4992080;28;20030;-57
2023/09/28 01:55:14;;;;;;;12.45;9.40;;;19.70;73.00;;;;;;4992065;28;20050;-58
2023/09/28 01:57:40;;;;;;;12.88;8.60;;;19.60;72.90;;;;;;4992287;28;20497;-56
2023/09/28 02:00:18;;;;;;;12.82;7.95;;;19.60;73.10;;;;;;4992174;28;20050;-58
2023/09/28 02:02:44;;;;;;;10.90;9.20;;;19.60;73.20;;;;;;4992255;28;20046;-57
2023/09/28 02:05:14;;;;;;;13.63;8.52;;;19.60;72.90;;;;;;4991711;28;20465;-57
2023/09/28 02:07:40;;;;;;;10.50;8.85;;;19.60;72.80;;;;;;4991959;28;20077;-57
2023/09/28 02:10:06;;;;;;;13.60;8.93;;;19.60;72.80;;;;;;4991749;28;20478;-58
2023/09/28 02:12:32;;;;;;;11.60;8.32;;;19.50;72.70;;;;;;4991871;28;20033;-57
2023/09/28 02:15:00;;;;;;;9.55;8.50;;;19.50;72.80;;;;;;4991458;28;20411;-58
2023/09/28 02:17:28;;;;;;;11.00;8.45;;;19.50;73.00;;;;;;4991891;28;20033;-58
2023/09/28 02:19:53;;;;;;;15.88;8.27;;;19.50;73.10;;;;;;4991590;28;20394;-58
2023/09/28 02:22:19;;;;;;;10.68;8.52;;;19.50;73.20;;;;;;4991525;28;20041;-56
2023/09/28 02:24:46;;;;;;;14.52;9.10;;;19.40;73.20;;;;;;4991649;28;20045;-56
2023/09/28 02:27:12;;;;;;;11.63;8.38;;;19.40;73.50;;;;;;4991605;28;20031;-58
2023/09/28 02:29:38;;;;;;;12.75;9.48;;;19.30;73.70;;;;;;4991578;28;20460;-57
2023/09/28 02:32:04;;;;;;;11.55;8.90;;;19.30;73.70;;;;;;4991873;28;20026;-58
2023/09/28 02:34:33;;;;;;;13.43;9.15;;;19.30;73.90;;;;;;4991470;28;20026;-57
2023/09/28 02:37:00;;;;;;;11.40;8.43;;;19.30;74.00;;;;;;4991488;28;20054;-57
2023/09/28 02:39:28;;;;;;;10.20;8.70;;;19.30;73.70;;;;;;4991377;28;20026;-58
2023/09/28 02:41:54;;;;;;;12.82;9.50;;;19.30;73.80;;;;;;4991498;28;20034;-58
2023/09/28 02:44:20;;;;;;;12.57;8.82;;;19.20;73.90;;;;;;4991133;28;20026;-57
2023/09/28 02:46:45;;;;;;;12.75;8.90;;;19.20;73.80;;;;;;4991228;28;20022;-58
2023/09/28 02:49:11;;;;;;;11.90;9.27;;;19.20;73.90;;;;;;4990985;28;20093;-57
2023/09/28 02:51:36;;;;;;;9.65;8.02;;;19.20;74.00;;;;;;4991151;28;20368;-58
2023/09/28 02:54:03;;;;;;;12.68;8.73;;;19.20;74.00;;;;;;4991241;28;20027;-58
2023/09/28 02:56:28;;;;;;;11.85;8.93;;;19.20;74.00;;;;;;4991180;28;20089;-57
2023/09/28 02:58:54;;;;;;;12.40;9.25;;;19.10;74.00;;;;;;4991664;28;20499;-58
2023/09/28 03:01:23;;;;;;;10.80;8.98;;;19.10;73.70;;;;;;5010811;28;20490;-58
2023/09/28 03:03:50;;;;;;;12.05;8.98;;;19.10;73.80;;;;;;5010883;28;20100;-57
2023/09/28 03:06:15;;;;;;;11.38;8.75;;;19.10;73.90;;;;;;5010635;28;20097;-57
2023/09/28 03:08:41;;;;;;;9.63;8.10;;;19.10;74.00;;;;;;5010412;28;20097;-57
2023/09/28 03:11:06;;;;;;;12.70;8.63;;;19.10;74.10;;;;;;5010569;28;20037;-57
2023/09/28 03:13:32;;;;;;;14.43;9.07;;;19.10;74.10;;;;;;5010221;28;20022;-57
2023/09/28 03:15:58;;;;;;;13.98;9.27;;;19.10;74.00;;;;;;5010336;28;20056;-56
2023/09/28 03:18:23;;;;;;;14.27;8.38;;;19.10;74.10;;;;;;5010738;28;20053;-58
2023/09/28 03:20:49;;;;;;;14.00;9.45;;;19.10;74.20;;;;;;5010277;28;20036;-57
2023/09/28 03:23:15;;;;;;;11.05;8.85;;;19.00;74.20;;;;;;5010223;28;20156;-57
2023/09/28 03:25:42;;;;;;;12.45;8.77;;;19.00;74.30;;;;;;5010561;28;20030;-56
2023/09/28 03:28:08;;;;;;;10.27;9.05;;;19.00;74.50;;;;;;5010641;28;20030;-57
2023/09/28 03:30:33;;;;;;;12.77;8.95;;;19.00;74.50;;;;;;5010421;28;20022;-58
2023/09/28 03:32:59;;;;;;;14.93;8.93;;;19.00;74.60;;;;;;5010521;28;20077;-58
2023/09/28 03:35:26;;;;;;;11.65;8.70;;;19.00;74.70;;;;;;5010662;28;20113;-57
2023/09/28 03:37:56;;;;;;;12.80;9.98;;;19.00;74.50;;;;;;5010435;28;20030;-57
2023/09/28 03:40:22;;;;;;;10.57;9.30;;;18.90;74.50;;;;;;5010429;28;20482;-56
2023/09/28 03:42:48;;;;;;;10.50;9.40;;;18.90;74.60;;;;;;4992636;28;20117;-57
2023/09/28 03:45:22;;;;;;;10.45;8.52;;;18.90;74.80;;;;;;5010015;28;20062;-58
2023/09/28 03:47:52;;;;;;;11.82;10.10;;;18.80;74.80;;;;;;5010260;28;20065;-58
2023/09/28 03:50:19;;;;;;;11.55;9.25;;;18.80;75.00;;;;;;5010473;28;20355;-58
2023/09/28 03:52:45;;;;;;;12.45;9.30;;;18.80;75.20;;;;;;5010299;28;20405;-57
2023/09/28 03:55:16;;;;;;;13.07;9.68;;;18.80;75.50;;;;;;5010182;28;20044;-57
2023/09/28 03:57:45;;;;;;;12.70;9.30;;;18.90;75.60;;;;;;5010406;28;20021;-58
2023/09/28 04:00:14;;;;;;;12.90;9.57;;;18.80;75.80;;;;;;4998780;28;20458;-57
2023/09/28 04:02:50;;;;;;;10.82;9.63;;;18.90;75.80;;;;;;4990500;28;20086;-57
2023/09/28 04:05:15;;;;;;;13.73;9.77;;;18.80;75.70;;;;;;4990776;28;20493;-57
2023/09/28 04:07:43;;;;;;;12.02;9.77;;;18.90;75.50;;;;;;4992743;28;20054;-56
2023/09/28 04:10:09;;;;;;;13.88;9.40;;;18.90;75.20;;;;;;4994096;28;20033;-57
2023/09/28 04:12:35;;;;;;;14.15;9.73;;;18.90;75.20;;;;;;4994054;28;20093;-57
2023/09/28 04:15:01;;;;;;;13.50;9.45;;;18.90;75.10;;;;;;4993699;28;20034;-58
2023/09/28 04:17:27;;;;;;;10.85;9.68;;;19.00;75.10;;;;;;4976097;28;20089;-57
2023/09/28 04:19:54;;;;;;;13.90;8.98;;;19.00;75.00;;;;;;4993243;28;20419;-57
2023/09/28 04:22:19;;;;;;;12.73;9.40;;;19.00;74.90;;;;;;4991642;28;20487;-56
2023/09/28 04:24:45;;;;;;;11.65;9.88;;;19.00;74.80;;;;;;4991928;28;20026;-57
2023/09/28 04:27:11;;;;;;;10.65;9.02;;;19.00;75.00;;;;;;4992053;28;20023;-57
2023/09/28 04:29:37;;;;;;;12.43;9.60;;;19.10;75.00;;;;;;4991091;28;20026;-58
2023/09/28 04:32:03;;;;;;;13.43;9.77;;;19.10;74.90;;;;;;4991125;28;20029;-57
2023/09/28 04:34:29;;;;;;;11.50;9.63;;;19.10;74.70;;;;;;4991446;28;20394;-56
2023/09/28 04:36:58;;;;;;;11.68;9.48;;;19.10;74.40;;;;;;4992570;28;20474;-57
2023/09/28 04:39:24;;;;;;;14.90;10.10;;;19.20;74.60;;;;;;4993595;28;20034;-56
2023/09/28 04:41:54;;;;;;;12.52;9.55;;;19.20;74.80;;;;;;4993420;28;20030;-58
2023/09/28 04:44:20;;;;;;;14.13;9.82;;;19.20;74.80;;;;;;4993782;28;20379;-57
2023/09/28 04:46:46;;;;;;;10.10;8.98;;;19.10;75.00;;;;;;4993483;28;20050;-58
2023/09/28 04:49:12;;;;;;;12.60;9.85;;;19.20;75.00;;;;;;4993617;28;20061;-58
2023/09/28 04:51:38;;;;;;;11.18;9.98;;;19.20;75.00;;;;;;4992930;28;20042;-57
2023/09/28 04:54:04;;;;;;;12.35;9.38;;;19.20;75.00;;;;;;4991029;28;20037;-57
2023/09/28 04:56:31;;;;;;;11.82;10.18;;;19.20;75.00;;;;;;4991340;28;20034;-56
2023/09/28 04:58:59;;;;;;;11.25;9.15;;;19.30;75.20;;;;;;4991560;28;20041;-57
2023/09/28 05:01:25;;;;;;;10.90;9.38;;;19.30;75.10;;;;;;4991531;28;20061;-57
2023/09/28 05:03:50;;;;;;;14.50;10.07;;;19.30;75.10;;;;;;4991821;28;20077;-58
2023/09/28 05:06:16;;;;;;;13.40;10.07;;;19.30;75.00;;;;;;5009886;28;20022;-57
2023/09/28 05:08:42;;;;;;;18.05;10.55;;;19.30;75.00;;;;;;5012221;28;20088;-56
2023/09/28 05:11:08;;;;;;;12.07;9.50;;;19.30;74.90;;;;;;5011275;28;20022;-57
2023/09/28 05:13:35;;;;;;;13.88;10.07;;;19.30;74.70;;;;;;5010243;28;20318;-58
2023/09/28 05:16:00;;;;;;;11.68;9.75;;;19.40;74.60;;;;;;5010250;28;20100;-57
2023/09/28 05:18:26;;;;;;;14.63;10.68;;;19.40;74.60;;;;;;5009092;28;20026;-57
2023/09/28 05:20:52;;;;;;;12.60;10.63;;;19.40;74.50;;;;;;5010786;28;20022;-58
2023/09/28 05:23:18;;;;;;;13.10;10.38;;;19.40;75.10;;;;;;5011015;28;20037;-57
2023/09/28 05:25:44;;;;;;;11.63;10.20;;;19.40;74.30;;;;;;5011836;28;20040;-58
2023/09/28 05:28:10;;;;;;;12.25;10.00;;;19.50;74.40;;;;;;5011729;28;20026;-57
2023/09/28 05:30:36;;;;;;;11.70;9.98;;;19.50;74.20;;;;;;5011946;28;20071;-57
2023/09/28 05:33:01;;;;;;;11.60;9.38;;;19.50;74.00;;;;;;5012215;28;20026;-57
2023/09/28 05:35:29;;;;;;;12.25;9.88;;;19.50;74.00;;;;;;5011873;28;20034;-57
2023/09/28 05:37:55;;;;;;;13.73;10.30;;;19.50;73.60;;;;;;5012100;28;20088;-58
2023/09/28 05:40:21;;;;;;;11.07;9.35;;;19.50;73.30;;;;;;5011668;28;20042;-56
2023/09/28 05:42:46;;;;;;;12.80;10.43;;;19.60;73.20;;;;;;5011965;28;20046;-58
2023/09/28 05:45:13;;;;;;;11.30;9.48;;;19.60;73.10;;;;;;5011536;28;20026;-56
2023/09/28 05:47:38;;;;;;;12.13;10.20;;;19.60;73.20;;;;;;5011928;28;20098;-58
2023/09/28 05:50:05;;;;;;;14.18;9.77;;;19.60;73.20;;;;;;5011771;28;20033;-56
2023/09/28 05:52:31;;;;;;;15.05;9.95;;;19.70;72.90;;;;;;5011852;28;20040;-58
2023/09/28 05:54:57;;;;;;;12.60;9.32;;;19.80;73.40;;;;;;5011800;28;20030;-57
2023/09/28 05:57:23;;;;;;;12.38;9.50;;;19.90;72.80;;;;;;5011723;28;20029;-57
2023/09/28 05:59:49;;;;;;;13.52;9.27;;;20.40;72.60;;;;;;5011259;28;20049;-58
2023/09/28 06:02:15;;;;;;;11.55;8.85;;;21.00;71.40;;;;;;5011149;28;20494;-57
2023/09/28 06:04:43;;;;;;;11.55;9.48;;;21.50;69.70;;;;;;5011373;28;20120;-57
2023/09/28 06:07:12;;;;;;;12.90;9.25;;;21.70;68.70;;;;;;5011358;28;20024;-57
2023/09/28 06:09:38;;;;;;;12.85;8.77;;;21.80;68.10;;;;;;5011306;28;20388;-57
2023/09/28 06:12:05;;;;;;;12.18;8.80;;;21.70;68.00;;;;;;5011465;28;20028;-57
2023/09/28 06:14:30;;;;;;;11.65;9.45;;;21.70;68.00;;;;;;5011544;28;20033;-58
2023/09/28 06:16:56;;;;;;;10.93;9.32;;;21.70;68.20;;;;;;5011614;28;20568;-58
2023/09/28 06:19:22;;;;;;;13.10;9.05;;;21.60;68.10;;;;;;5011148;28;20078;-58
2023/09/28 06:21:47;;;;;;;10.93;8.65;;;21.40;68.40;;;;;;5011218;28;20030;-57
2023/09/28 06:24:13;;;;;;;11.73;9.27;;;21.40;68.10;;;;;;5011349;28;20490;-58
2023/09/28 06:26:39;;;;;;;10.80;9.30;;;21.30;68.40;;;;;;5010906;28;20037;-58
2023/09/28 06:29:05;;;;;;;15.38;9.90;;;21.20;68.70;;;;;;5009775;28;20538;-58
2023/09/28 06:31:31;;;;;;;13.00;9.00;;;21.10;68.80;;;;;;5011015;28;20113;-58
2023/09/28 06:33:56;;;;;;;12.98;10.25;;;21.10;69.20;;;;;;5010933;28;20120;-58
2023/09/28 06:36:25;;;;;;;12.45;9.93;;;21.00;69.30;;;;;;5010898;28;20541;-58
2023/09/28 06:38:51;;;;;;;13.25;10.20;;;21.00;69.60;;;;;;5011106;28;20034;-58
2023/09/28 06:41:17;;;;;;;10.95;9.23;;;21.00;69.70;;;;;;5010846;28;20501;-58
2023/09/28 06:43:43;;;;;;;13.48;10.18;;;21.00;69.20;;;;;;5010444;28;20041;-57
2023/09/28 06:46:09;;;;;;;11.20;9.52;;;20.90;68.80;;;;;;5010606;28;20053;-57
2023/09/28 06:48:35;;;;;;;13.48;10.05;;;20.90;68.30;;;;;;5010749;28;20045;-58
2023/09/28 06:51:01;;;;;;;21.70;10.45;;;20.90;68.40;;;;;;5010336;28;20022;-58
2023/09/28 06:53:27;;;;;;;11.60;9.88;;;21.00;68.40;;;;;;5010306;28;20052;-58
2023/09/28 06:55:54;;;;;;;12.32;9.38;;;21.00;68.30;;;;;;5010746;28;20501;-57
2023/09/28 06:58:20;;;;;;;12.13;9.82;;;21.00;68.80;;;;;;5010740;28;20030;-57
2023/09/28 07:00:46;;;;;;;12.10;9.98;;;21.00;69.00;;;;;;5010941;28;20042;-57
2023/09/28 07:03:13;;;;;;;11.38;9.85;;;21.00;68.80;;;;;;5010561;28;20363;-57
2023/09/28 07:05:40;;;;;;;12.25;9.52;;;21.00;68.70;;;;;;5010772;28;20026;-58
2023/09/28 07:08:06;;;;;;;12.27;10.35;;;21.00;68.40;;;;;;5010727;28;20044;-57
2023/09/28 07:10:35;;;;;;;11.75;10.32;;;21.00;68.50;;;;;;5010382;28;20072;-57
2023/09/28 07:13:03;;;;;;;11.43;9.60;;;21.10;68.70;;;;;;5010412;28;20026;-58
2023/09/28 07:15:30;;;;;;;14.55;10.15;;;21.10;68.90;;;;;;5011132;28;20041;-57
2023/09/28 07:17:56;;;;;;;12.20;10.38;;;21.10;68.80;;;;;;5010417;28;20030;-57
2023/09/28 07:20:22;;;;;;;10.95;9.38;;;21.10;68.60;;;;;;5010569;28;20033;-56
2023/09/28 07:22:48;;;;;;;13.00;9.55;;;21.10;68.60;;;;;;5010809;28;20385;-58
2023/09/28 07:25:14;;;;;;;15.75;10.13;;;21.20;68.20;;;;;;5010400;28;20034;-58
2023/09/28 07:27:44;;;;;;;12.63;9.82;;;21.20;67.90;;;;;;5010379;28;20022;-57
2023/09/28 07:30:11;;;;;;;12.20;10.07;;;21.20;67.80;;;;;;5010665;28;20030;-57
2023/09/28 07:32:37;;;;;;;11.57;10.35;;;21.20;67.90;;;;;;5010575;28;20045;-58
2023/09/28 07:35:04;;;;;;;11.88;9.25;;;21.30;67.90;;;;;;5009726;28;20046;-57
2023/09/28 07:37:29;;;;;;;15.05;10.40;;;21.30;67.90;;;;;;5010481;28;20038;-57
2023/09/28 07:39:55;;;;;;;11.65;10.13;;;21.30;67.60;;;;;;5010485;28;20037;-57
2023/09/28 07:42:21;;;;;;;17.23;10.30;;;21.30;67.10;;;;;;5012021;28;20037;-57
2023/09/28 07:44:47;;;;;;;14.85;10.00;;;21.30;67.10;;;;;;5013929;28;20390;-57
2023/09/28 07:47:13;;;;;;;12.02;9.80;;;21.40;66.80;;;;;;5014125;28;20026;-57
2023/09/28 07:49:40;;;;;;;13.48;9.95;;;21.40;66.80;;;;;;5013916;28;20084;-58
2023/09/28 07:52:08;;;;;;;11.63;9.32;;;21.30;66.80;;;;;;5013808;28;20363;-58
2023/09/28 07:54:36;;;;;;;14.13;10.43;;;21.40;66.90;;;;;;5013681;28;20042;-58
2023/09/28 07:57:04;;;;;;;15.10;10.00;;;21.40;66.90;;;;;;5013825;28;20053;-58
2023/09/28 07:59:34;;;;;;;13.57;10.52;;;21.30;66.70;;;;;;5013564;28;20554;-58
2023/09/28 08:02:00;;;;;;;13.00;9.93;;;21.30;66.60;;;;;;5013774;28;20057;-58
2023/09/28 08:04:27;;;;;;;12.30;10.32;;;21.40;66.70;;;;;;5013696;28;20026;-57
2023/09/28 08:06:54;;;;;;;15.18;10.45;;;21.40;66.80;;;;;;5013843;28;20032;-57
2023/09/28 08:09:19;;;;;;;12.50;10.73;;;21.40;66.70;;;;;;5013807;28;20030;-57
2023/09/28 08:11:48;;;;;;;13.10;10.30;;;21.40;66.50;;;;;;5013304;28;20030;-57
2023/09/28 08:14:15;;;;;;;13.38;10.07;;;21.40;66.50;;;;;;5012837;28;20095;-58
2023/09/28 08:16:44;;;;;;;12.05;9.75;;;21.40;66.50;;;;;;5012136;28;20502;-57
2023/09/28 08:19:11;;;;;;;12.48;10.18;;;21.40;66.40;;;;;;5011867;28;20025;-55
2023/09/28 08:21:40;;;;;;;15.70;11.02;;;21.40;66.40;;;;;;5011679;28;20029;-55
2023/09/28 08:24:07;;;;;;;13.50;9.77;;;21.40;66.40;;;;;;5011855;28;20430;-57
2023/09/28 08:26:33;;;;;;;15.27;10.30;;;21.40;66.50;;;;;;5013187;28;20018;-57
2023/09/28 08:29:00;;;;;;;12.05;10.73;;;21.50;66.40;;;;;;5013492;28;20026;-57
2023/09/28 08:31:27;;;;;;;12.20;10.35;;;21.50;66.20;;;;;;5013385;28;20026;-56
2023/09/28 08:33:52;;;;;;;13.32;10.85;;;21.50;66.10;;;;;;4995360;28;20026;-57
2023/09/28 08:36:18;;;;;;;11.20;9.65;;;21.50;66.10;;;;;;5013074;28;20033;-55
2023/09/28 08:38:44;;;;;;;11.43;10.25;;;21.50;65.80;;;;;;5013228;28;20022;-57
2023/09/28 08:41:10;;;;;;;16.70;10.70;;;21.50;65.70;;;;;;5012796;28;20049;-57
2023/09/28 08:43:42;;;;;;;13.30;10.07;;;21.50;65.70;;;;;;5012853;28;20029;-56
2023/09/28 08:46:11;;;;;;;13.10;9.98;;;21.50;65.10;;;;;;5012964;28;20022;-57
2023/09/28 08:48:42;;;;;;;15.18;11.35;;;21.50;65.10;;;;;;5012873;28;20018;-58
2023/09/28 08:51:10;;;;;;;;;;;21.50;64.60;;;;;;5013116;28;20108;-58
2023/09/28 08:53:38;;;;;;;13.93;10.07;;;21.50;64.70;;;;;;5010978;28;19909;-57
2023/09/28 08:56:04;;;;;;;12.45;10.15;;;21.50;64.00;;;;;;5012637;28;20129;-58
2023/09/28 08:58:34;;;;;;;15.52;10.10;;;21.50;63.60;;;;;;5012494;28;20040;-57
2023/09/28 09:01:00;;;;;;;13.23;10.05;;;21.50;63.40;;;;;;5012056;28;20054;-58
2023/09/28 09:03:27;;;;;;;13.13;10.82;;;21.60;63.30;;;;;;5012724;28;20057;-57
2023/09/28 09:05:55;;;;;;;11.35;9.65;;;21.60;63.50;;;;;;5012756;28;20038;-57
2023/09/28 09:08:23;;;;;;;12.68;9.98;;;21.60;64.60;;;;;;5012971;28;20101;-57
2023/09/28 09:10:51;;;;;;;11.40;9.20;;;21.60;63.90;;;;;;5012487;28;20045;-57
2023/09/28 09:13:19;;;;;;;11.30;9.80;;;21.60;63.90;;;;;;5012570;28;20029;-56
2023/09/28 09:15:46;;;;;;;11.85;9.90;;;21.70;63.40;;;;;;5012257;28;20521;-56
2023/09/28 09:18:24;;;;;;;13.18;10.18;;;21.70;63.10;;;;;;5012444;28;20040;-57
2023/09/28 09:20:56;;;;;;;11.90;9.55;;;21.70;62.80;;;;;;5012310;28;20037;-58
2023/09/28 09:23:22;;;;;;;11.85;9.43;;;21.70;63.60;;;;;;5012118;28;20140;-58
2023/09/28 09:25:48;;;;;;;13.88;9.68;;;21.70;62.80;;;;;;5012194;28;20057;-58
2023/09/28 09:28:48;;;;;;;10.50;9.40;;;21.70;62.10;;;;;;5011866;28;20022;-58
2023/09/28 09:31:14;;;;;;;10.55;9.27;;;21.80;61.70;;;;;;4978738;28;20034;-57
2023/09/28 09:33:41;;;;;;;13.68;10.18;;;21.80;61.60;;;;;;5010011;28;20478;-57
2023/09/28 09:36:07;;;;;;;15.98;9.80;;;21.80;61.50;;;;;;5011206;28;20081;-57
2023/09/28 09:38:33;;;;;;;15.48;9.93;;;21.80;61.40;;;;;;5011959;28;20026;-57
2023/09/28 09:41:06;;;;;;;13.02;10.18;;;21.80;61.60;;;;;;5011946;28;20022;-57
2023/09/28 09:43:34;;;;;;;13.95;9.93;;;21.80;61.90;;;;;;5011680;28;20482;-56
2023/09/28 09:46:09;;;;;;;12.93;9.90;;;21.80;61.90;;;;;;5010618;28;20046;-57
2023/09/28 09:48:42;;;;;;;11.25;9.88;;;21.90;62.00;;;;;;5010952;28;20486;-58
2023/09/28 09:51:13;;;;;;;14.80;9.10;;;21.90;61.90;;;;;;5009655;28;20026;-57
2023/09/28 09:53:40;;;;;;;12.45;9.32;;;21.90;62.00;;;;;;5009994;28;20061;-57
2023/09/28 09:56:07;;;;;;;13.43;10.00;;;21.90;62.20;;;;;;5010024;28;20040;-57
2023/09/28 09:58:39;;;;;;;10.95;9.38;;;22.00;62.50;;;;;;5009649;28;20037;-58
2023/09/28 10:01:12;;;;;;;13.77;9.02;;;22.00;62.40;;;;;;5009367;28;20120;-58
2023/09/28 10:03:47;;;;;;;11.38;9.40;;;22.00;62.10;;;;;;5009760;28;20084;-57
2023/09/28 10:06:15;;;;;;;11.63;9.93;;;22.10;62.90;;;;;;5009929;28;20117;-57
2023/09/28 10:08:43;;;;;;;11.30;9.82;;;22.00;63.00;;;;;;5009863;28;20414;-58
2023/09/28 10:11:10;;;;;;;11.00;9.00;;;22.10;63.90;;;;;;5009629;28;20026;-58
2023/09/28 10:13:36;;;;;;;10.75;8.98;;;22.10;63.40;;;;;;5009543;28;20026;-57
2023/09/28 10:16:03;;;;;;;13.07;9.32;;;22.20;63.50;;;;;;5009272;28;20033;-56
2023/09/28 10:18:33;;;;;;;13.55;9.93;;;22.20;63.10;;;;;;5008988;28;20018;-58
2023/09/28 10:21:00;;;;;;;13.85;9.82;;;22.20;62.90;;;;;;5008764;28;20024;-57
2023/09/28 10:23:26;;;;;;;15.82;8.95;;;22.20;63.10;;;;;;5010691;28;20029;-58
2023/09/28 10:26:10;;;;;;;13.02;10.35;;;22.30;63.00;;;;;;5010842;28;20037;-57
2023/09/28 10:28:56;;;;;;;9.65;8.38;;;22.30;62.90;;;;;;5010980;28;20105;-58
2023/09/28 10:31:22;;;;;;;12.93;9.25;;;22.30;62.60;;;;;;5010610;28;20033;-57
2023/09/28 10:34:20;;;;;;;10.15;8.50;;;22.30;62.00;;;;;;5011257;28;20026;-57
2023/09/28 10:37:05;;;;;;;13.10;8.60;;;22.40;61.80;;;;;;4999552;28;20038;-58
2023/09/28 10:39:32;;;;;;;11.75;8.65;;;22.40;62.00;;;;;;5011191;28;20032;-58
2023/09/28 10:42:15;;;;;;;12.90;8.98;;;22.40;62.00;;;;;;5010821;28;20052;-57
2023/09/28 10:44:54;;;;;;;11.70;9.40;;;22.40;62.10;;;;;;5010819;28;20141;-58
2023/09/28 10:47:21;;;;;;;11.40;9.50;;;22.50;62.90;;;;;;5011114;28;20030;-58
2023/09/28 10:49:48;;;;;;;10.45;9.35;;;22.50;63.40;;;;;;5010844;28;20030;-57
2023/09/28 10:52:14;;;;;;;11.57;8.75;;;22.50;64.10;;;;;;5010966;28;20030;-57
2023/09/28 10:54:41;;;;;;;10.60;8.45;;;22.50;63.90;;;;;;5010700;28;20069;-56
2023/09/28 10:57:07;;;;;;;9.45;7.95;;;22.50;63.00;;;;;;5011016;28;20032;-58
2023/09/28 10:59:36;;;;;;;10.27;8.13;;;22.50;62.60;;;;;;5010291;28;20129;-57
2023/09/28 11:02:02;;;;;;;9.95;8.45;;;22.60;62.10;;;;;;5010468;28;20497;-58
2023/09/28 11:04:29;;;;;;;12.75;7.97;;;22.60;61.70;;;;;;5010347;28;20030;-58
2023/09/28 11:06:55;;;;;;;10.23;7.97;;;22.60;61.30;;;;;;5010742;28;20104;-58
2023/09/28 11:09:21;;;;;;;11.73;8.40;;;22.70;61.20;;;;;;5010648;28;20172;-58
2023/09/28 11:11:49;;;;;;;12.85;8.70;;;22.70;61.10;;;;;;5010106;28;20101;-57
2023/09/28 11:14:14;;;;;;;10.23;8.18;;;22.70;61.00;;;;;;5010430;28;20057;-56
2023/09/28 11:16:42;;;;;;;11.90;8.75;;;22.70;60.50;;;;;;5012251;28;20057;-58
2023/09/28 11:19:12;;;;;;;10.90;8.13;;;22.70;60.70;;;;;;5014252;28;20108;-58
2023/09/28 11:21:40;;;;;;;;;;;22.80;60.50;;;;;;5014568;28;20037;-58
2023/09/28 11:24:06;;;;;;;11.13;7.72;;;22.70;60.70;;;;;;5014461;28;19909;-57
2023/09/28 11:26:33;;;;;;;9.05;7.60;;;22.70;60.40;;;;;;4996362;28;20492;-58
2023/09/28 11:28:59;;;;;;;9.60;6.97;;;22.80;59.70;;;;;;4994308;28;20011;-57
2023/09/28 11:31:27;;;;;;;11.05;7.53;;;22.80;59.10;;;;;;4998672;28;20053;-58
2023/09/28 11:33:57;;;;;;;10.13;7.35;;;22.90;59.10;;;;;;4986793;28;20081;-58
2023/09/28 11:36:22;;;;;;;7.65;6.80;;;22.90;58.80;;;;;;4991956;28;20058;-57
2023/09/28 11:38:49;;;;;;;9.70;7.43;;;22.90;59.10;;;;;;4992730;28;20046;-58
2023/09/28 11:41:15;;;;;;;11.02;7.30;;;22.90;58.90;;;;;;4992589;28;20026;-56
2023/09/28 11:43:49;;;;;;;9.13;6.85;;;22.90;58.50;;;;;;4993742;28;20026;-58
2023/09/28 11:46:27;;;;;;;8.93;7.18;;;23.00;58.00;;;;;;4993832;28;20033;-58
2023/09/28 11:49:09;;;;;;;8.85;6.75;;;23.00;57.20;;;;;;4993541;28;20064;-59
2023/09/28 11:51:35;;;;;;;11.77;6.63;;;23.00;57.30;;;;;;4992293;28;20105;-58
2023/09/28 11:54:05;;;;;;;8.07;6.55;;;23.00;56.90;;;;;;4993320;28;20031;-58
2023/09/28 11:56:31;;;;;;;8.50;6.17;;;23.00;56.60;;;;;;4994275;28;20034;-56
2023/09/28 11:58:57;;;;;;;8.75;6.28;;;23.10;56.30;;;;;;4994920;28;20487;-57
2023/09/28 12:01:23;;;;;;;9.32;6.93;;;23.10;56.40;;;;;;5013423;28;20080;-58
2023/09/28 12:03:49;;;;;;;6.70;5.63;;;23.10;56.40;;;;;;5013492;28;20051;-57
2023/09/28 12:06:17;;;;;;;9.00;6.00;;;23.20;55.70;;;;;;5013575;28;20402;-58
2023/09/28 12:08:43;;;;;;;11.88;6.75;;;23.20;55.20;;;;;;5013375;28;20113;-58
2023/09/28 12:11:09;;;;;;;7.63;5.40;;;23.30;55.20;;;;;;5012188;28;20101;-57
2023/09/28 12:13:36;;;;;;;8.65;5.95;;;23.40;55.20;;;;;;5011211;28;20447;-58
2023/09/28 12:16:03;;;;;;;9.93;6.10;;;23.40;54.90;;;;;;5011770;28;20018;-58
2023/09/28 12:18:29;;;;;;;7.18;5.65;;;23.50;54.80;;;;;;5010916;28;20590;-57
2023/09/28 12:20:55;;;;;;;6.30;5.00;;;23.50;53.80;;;;;;5009653;28;20033;-57
2023/09/28 12:23:21;;;;;;;7.70;5.70;;;23.60;53.30;;;;;;5011116;28;20101;-57
2023/09/28 12:25:46;;;;;;;9.38;5.72;;;23.60;52.80;;;;;;5011546;28;20034;-58
2023/09/28 12:28:12;;;;;;;7.38;4.93;;;23.70;52.70;;;;;;5010171;28;20017;-56
2023/09/28 12:30:38;;;;;;;8.43;5.13;;;23.70;52.90;;;;;;5010012;28;20065;-57
2023/09/28 12:33:05;;;;;;;9.50;5.50;;;23.80;52.80;;;;;;5010205;28;20033;-57
2023/09/28 12:35:31;;;;;;;8.20;5.68;;;23.80;53.00;;;;;;5010797;28;20477;-58
2023/09/28 12:37:57;;;;;;;10.10;5.55;;;23.80;53.00;;;;;;5010539;28;20030;-57